createdAt,value
2018-04-23T00:00:25.591Z,90.00
2018-04-23T00:02:54.263Z,89.50
2018-04-23T00:05:23.037Z,90.30
2018-04-23T00:07:54.454Z,90.10
2018-04-23T00:10:23.253Z,90.00
2018-04-23T00:12:51.794Z,90.20
2018-04-23T00:15:20.442Z,90.40
2018-04-23T00:17:49.920Z,90.40
2018-04-23T00:20:18.596Z,90.50
2018-04-23T00:22:47.160Z,90.40
2018-04-23T00:25:16.502Z,90.60
2018-04-23T00:27:46.309Z,90.40
2018-04-23T00:30:15.124Z,90.40
2018-04-23T00:32:43.757Z,90.40
2018-04-23T00:35:13.479Z,90.60
2018-04-23T00:37:42.534Z,90.60
2018-04-23T00:40:11.254Z,90.30
2018-04-23T00:42:39.905Z,90.50
2018-04-23T00:45:08.601Z,90.50
2018-04-23T00:47:37.242Z,90.70
2018-04-23T00:50:05.871Z,91.00
2018-04-23T00:52:34.559Z,91.40
2018-04-23T00:55:03.277Z,90.80
2018-04-23T00:57:32.004Z,91.00
2018-04-23T01:00:00.693Z,91.20
2018-04-23T01:02:29.346Z,91.30
2018-04-23T01:04:57.952Z,91.30
2018-04-23T01:07:27.527Z,91.40
2018-04-23T01:09:56.452Z,91.40
2018-04-23T01:12:25.462Z,91.70
2018-04-23T01:14:54.171Z,91.90
2018-04-23T01:17:22.964Z,91.90
2018-04-23T01:19:51.559Z,91.70
2018-04-23T01:22:20.239Z,91.70
2018-04-23T01:24:48.829Z,91.80
2018-04-23T01:29:51.103Z,91.30
2018-04-23T01:32:19.794Z,91.70
2018-04-23T01:34:49.224Z,91.60
2018-04-23T01:37:18.220Z,91.50
2018-04-23T01:42:21.711Z,91.80
2018-04-23T01:44:50.389Z,91.60
2018-04-23T01:47:19.813Z,90.50
2018-04-23T01:52:22.993Z,90.90
2018-04-23T01:54:51.741Z,91.10
2018-04-23T01:57:20.387Z,91.30
2018-04-23T01:59:49.226Z,91.40
2018-04-23T02:02:18.881Z,91.40
2018-04-23T02:04:47.904Z,91.80
2018-04-23T02:07:16.609Z,91.80
2018-04-23T02:09:46.172Z,92.00
2018-04-23T02:12:15.752Z,92.20
2018-04-23T02:14:44.378Z,92.20
2018-04-23T02:17:13.120Z,92.30
2018-04-23T02:19:41.757Z,92.40
2018-04-23T02:22:10.349Z,92.20
2018-04-23T02:24:39.075Z,92.10
2018-04-23T02:27:08.190Z,92.70
2018-04-23T02:29:37.349Z,91.90
2018-04-23T02:32:07.451Z,91.80
2018-04-23T02:34:36.481Z,91.70
2018-04-23T02:37:05.220Z,91.50
2018-04-23T02:39:34.753Z,91.20
2018-04-23T02:42:03.909Z,91.20
2018-04-23T02:44:32.567Z,91.60
2018-04-23T02:47:01.867Z,92.10
2018-04-23T02:49:30.850Z,92.10
2018-04-23T02:51:59.520Z,92.90
2018-04-23T02:54:28.851Z,93.30
2018-04-23T02:56:58.091Z,93.20
2018-04-23T02:59:26.785Z,93.40
2018-04-23T03:01:55.625Z,93.60
2018-04-23T03:04:25.598Z,93.40
2018-04-23T03:06:54.392Z,93.40
2018-04-23T03:09:23.032Z,93.60
2018-04-23T03:11:51.700Z,93.40
2018-04-23T03:14:20.345Z,93.40
2018-04-23T03:16:49.779Z,92.20
2018-04-23T03:19:18.460Z,92.20
2018-04-23T03:21:48.376Z,90.80
2018-04-23T03:24:16.932Z,91.20
2018-04-23T03:26:46.350Z,91.80
2018-04-23T03:29:14.985Z,91.70
2018-04-23T03:31:43.693Z,92.20
2018-04-23T03:34:12.724Z,92.40
2018-04-23T03:36:42.149Z,92.70
2018-04-23T03:39:10.875Z,93.10
2018-04-23T03:41:39.550Z,93.40
2018-04-23T03:44:08.298Z,93.70
2018-04-23T03:46:37.011Z,93.90
2018-04-23T03:49:06.497Z,93.70
2018-04-23T03:51:35.106Z,93.60
2018-04-23T03:54:03.680Z,93.40
2018-04-23T03:56:32.464Z,93.40
2018-04-23T03:59:01.883Z,93.70
2018-04-23T04:01:30.437Z,93.70
2018-04-23T04:03:59.458Z,94.10
2018-04-23T04:06:29.034Z,94.30
2018-04-23T04:08:59.623Z,93.80
2018-04-23T04:11:28.645Z,93.80
2018-04-23T04:14:16.163Z,93.50
2018-04-23T04:16:58.792Z,93.90
2018-04-23T04:19:27.702Z,94.10
2018-04-23T04:21:56.393Z,94.00
2018-04-23T04:24:25.266Z,93.60
2018-04-23T04:26:53.937Z,93.30
2018-04-23T04:31:56.276Z,92.70
2018-04-23T04:34:25.247Z,92.90
2018-04-23T04:36:54.237Z,93.00
2018-04-23T04:39:24.101Z,92.90
2018-04-23T04:41:52.865Z,92.90
2018-04-23T04:44:21.499Z,93.20
2018-04-23T04:46:50.280Z,93.40
2018-04-23T04:49:18.973Z,92.80
2018-04-23T04:51:47.572Z,93.10
2018-04-23T04:54:16.289Z,93.30
2018-04-23T04:56:44.992Z,93.30
2018-04-23T04:59:13.724Z,93.40
2018-04-23T05:01:43.318Z,93.10
2018-04-23T05:04:12.249Z,93.10
2018-04-23T05:06:40.978Z,93.30
2018-04-23T05:09:11.193Z,93.00
2018-04-23T05:11:40.057Z,92.90
2018-04-23T05:14:08.622Z,93.10
2018-04-23T05:16:37.409Z,92.90
2018-04-23T05:19:06.084Z,92.50
2018-04-23T05:21:34.842Z,92.40
2018-04-23T05:24:03.461Z,92.30
2018-04-23T05:29:07.209Z,91.10
2018-04-23T05:31:35.775Z,91.10
2018-04-23T05:34:04.343Z,90.80
2018-04-23T05:39:08.027Z,89.00
2018-04-23T05:41:36.714Z,87.80
2018-04-23T05:44:06.190Z,83.50
2018-04-23T05:46:34.870Z,83.40
2018-04-23T05:49:03.477Z,82.70
2018-04-23T05:51:32.291Z,81.90
2018-04-23T05:54:01.104Z,81.70
2018-04-23T05:56:29.817Z,80.80
2018-04-23T05:58:58.599Z,79.80
2018-04-23T06:01:28.168Z,79.10
2018-04-23T06:03:57.101Z,79.10
2018-04-23T06:06:26.087Z,78.50
2018-04-23T06:08:54.919Z,78.60
2018-04-23T06:11:23.594Z,78.10
2018-04-23T06:13:52.257Z,77.30
2018-04-23T06:16:21.655Z,76.00
2018-04-23T06:18:50.828Z,75.90
2018-04-23T06:23:53.351Z,73.80
2018-04-23T06:26:21.992Z,73.10
2018-04-23T06:28:50.754Z,73.30
2018-04-23T06:31:20.720Z,70.60
2018-04-23T06:33:51.537Z,70.50
2018-04-23T06:36:21.138Z,70.00
2018-04-23T06:38:49.881Z,70.00
2018-04-23T06:41:18.649Z,70.00
2018-04-23T06:43:48.975Z,67.80
2018-04-23T06:48:51.264Z,67.10
2018-04-23T06:51:19.991Z,67.10
2018-04-23T06:53:49.864Z,66.70
2018-04-23T06:56:20.817Z,64.90
2018-04-23T06:58:50.066Z,64.40
2018-04-23T07:01:19.522Z,63.80
2018-04-23T07:03:48.241Z,63.80
2018-04-23T07:06:17.006Z,64.60
2018-04-23T07:08:47.423Z,61.50
2018-04-23T07:11:16.387Z,61.40
2018-04-23T07:13:45.356Z,61.50
2018-04-23T07:16:14.266Z,59.90
2018-04-23T07:18:42.894Z,60.60
2018-04-23T07:23:46.327Z,59.40
2018-04-23T07:26:15.077Z,57.70
2018-04-23T07:28:43.752Z,57.10
2018-04-23T07:31:12.497Z,56.50
2018-04-23T07:33:41.259Z,57.60
2018-04-23T07:36:09.961Z,58.00
2018-04-23T07:38:38.743Z,57.40
2018-04-23T07:41:07.529Z,57.30
2018-04-23T07:43:36.210Z,57.00
2018-04-23T07:46:04.937Z,57.10
2018-04-23T07:48:34.337Z,54.80
2018-04-23T07:51:03.511Z,54.70
2018-04-23T07:53:32.965Z,53.60
2018-04-23T07:56:02.098Z,52.70
2018-04-23T07:58:30.828Z,53.00
2018-04-23T08:01:00.864Z,49.20
2018-04-23T08:03:30.751Z,46.00
2018-04-23T08:05:59.826Z,45.90
2018-04-23T08:08:28.486Z,46.20
2018-04-23T08:10:57.352Z,48.70
2018-04-23T08:13:25.958Z,46.80
2018-04-23T08:15:54.739Z,43.20
2018-04-23T08:20:58.175Z,40.20
2018-04-23T08:23:27.030Z,40.20
2018-04-23T08:25:55.700Z,39.90
2018-04-23T08:28:25.196Z,39.10
2018-04-23T08:30:53.898Z,38.40
2018-04-23T08:33:22.659Z,38.10
2018-04-23T08:35:51.502Z,36.90
2018-04-23T08:38:20.213Z,36.30
2018-04-23T08:40:48.878Z,36.00
2018-04-23T08:43:18.247Z,36.20
2018-04-23T08:45:47.060Z,36.10
2018-04-23T08:48:15.727Z,35.20
2018-04-23T08:50:46.784Z,35.10
2018-04-23T08:53:16.447Z,35.40
2018-04-23T08:55:46.798Z,35.30
2018-04-23T08:58:15.569Z,34.40
2018-04-23T09:00:45.142Z,35.80
2018-04-23T09:03:13.963Z,35.70
2018-04-23T09:05:42.900Z,36.10
2018-04-23T09:08:11.469Z,35.60
2018-04-23T09:10:40.331Z,35.40
2018-04-23T09:13:09.839Z,33.10
2018-04-23T09:15:38.742Z,33.10
2018-04-23T09:18:07.627Z,30.80
2018-04-23T09:20:37.061Z,28.50
2018-04-23T09:23:06.899Z,29.40
2018-04-23T09:25:35.588Z,29.10
2018-04-23T09:28:04.300Z,28.70
2018-04-23T09:30:32.892Z,28.30
2018-04-23T09:33:01.634Z,27.70
2018-04-23T09:35:30.326Z,27.40
2018-04-23T09:40:32.556Z,29.00
2018-04-23T09:43:01.276Z,29.40
2018-04-23T09:45:30.011Z,29.60
2018-04-23T09:47:59.256Z,29.30
2018-04-23T09:50:28.757Z,29.50
2018-04-23T09:52:58.295Z,28.00
2018-04-23T09:55:27.024Z,28.30
2018-04-23T09:57:55.807Z,28.50
2018-04-23T10:00:31.945Z,28.20
2018-04-23T10:03:06.439Z,28.20
2018-04-23T10:05:35.242Z,29.50
2018-04-23T10:08:04.111Z,29.70
2018-04-23T10:10:33.331Z,28.50
2018-04-23T10:13:02.145Z,28.70
2018-04-23T10:15:31.697Z,28.30
2018-04-23T10:18:01.176Z,27.70
2018-04-23T10:20:29.893Z,27.60
2018-04-23T10:22:58.604Z,27.10
2018-04-23T10:25:27.440Z,27.70
2018-04-23T10:27:56.958Z,30.30
2018-04-23T10:32:59.592Z,29.50
2018-04-23T10:35:29.620Z,28.40
2018-04-23T10:37:59.074Z,28.40
2018-04-23T10:40:28.575Z,27.70
2018-04-23T10:42:57.311Z,27.70
2018-04-23T10:48:00.396Z,28.40
2018-04-23T10:50:29.781Z,26.70
2018-04-23T10:52:58.417Z,25.60
2018-04-23T10:55:27.174Z,25.50
2018-04-23T10:57:55.780Z,25.10
2018-04-23T11:00:24.541Z,25.30
2018-04-23T11:02:54.796Z,23.30
2018-04-23T11:05:23.992Z,23.40
2018-04-23T11:07:52.793Z,24.50
2018-04-23T11:10:21.471Z,24.00
2018-04-23T11:12:50.926Z,24.20
2018-04-23T11:15:20.012Z,24.20
2018-04-23T11:17:49.418Z,23.60
2018-04-23T11:20:19.142Z,22.70
2018-04-23T11:22:47.863Z,22.60
2018-04-23T11:25:16.879Z,23.40
2018-04-23T11:27:45.615Z,23.70
2018-04-23T11:30:14.402Z,23.10
2018-04-23T11:32:44.206Z,23.20
2018-04-23T11:35:13.335Z,22.90
2018-04-23T11:40:16.250Z,22.30
2018-04-23T11:42:44.876Z,22.30
2018-04-23T11:45:13.716Z,23.40
2018-04-23T11:47:42.551Z,22.80
2018-04-23T11:50:11.370Z,22.50
2018-04-23T11:55:14.881Z,22.60
2018-04-23T11:57:45.788Z,22.60
2018-04-23T12:00:15.037Z,22.60
2018-04-23T12:02:43.883Z,22.80
2018-04-23T12:05:13.456Z,22.40
2018-04-23T12:07:42.367Z,22.40
2018-04-23T12:10:11.105Z,23.00
2018-04-23T12:12:39.897Z,22.10
2018-04-23T12:15:08.989Z,22.30
2018-04-23T12:17:37.755Z,22.40
2018-04-23T12:20:06.731Z,22.90
2018-04-23T12:22:37.112Z,23.60
2018-04-23T12:25:07.395Z,21.00
2018-04-23T12:27:36.479Z,21.00
2018-04-23T12:30:05.972Z,22.00
2018-04-23T12:32:34.957Z,21.90
2018-04-23T12:35:03.875Z,21.50
2018-04-23T12:37:32.779Z,21.70
2018-04-23T12:40:01.531Z,21.70
2018-04-23T12:42:30.148Z,22.20
2018-04-23T12:44:58.938Z,22.60
2018-04-23T12:47:27.808Z,22.20
2018-04-23T12:49:56.619Z,22.10
2018-04-23T12:52:25.544Z,22.40
2018-04-23T12:54:54.767Z,22.50
2018-04-23T12:57:25.576Z,22.10
2018-04-23T13:02:31.227Z,22.80
2018-04-23T13:05:00.145Z,22.70
2018-04-23T13:07:29.163Z,21.90
2018-04-23T13:09:58.001Z,22.30
2018-04-23T13:12:27.855Z,22.90
2018-04-23T13:14:57.322Z,22.80
2018-04-23T13:17:26.233Z,22.80
2018-04-23T13:19:55.815Z,23.10
2018-04-23T13:22:25.826Z,23.70
2018-04-23T13:24:54.529Z,23.70
2018-04-23T13:27:24.314Z,23.60
2018-04-23T13:29:53.187Z,23.60
2018-04-23T13:32:21.854Z,23.30
2018-04-23T13:34:50.904Z,23.20
2018-04-23T13:37:19.718Z,23.00
2018-04-23T13:39:48.595Z,22.60
2018-04-23T13:42:17.456Z,23.20
2018-04-23T13:44:46.184Z,23.50
2018-04-23T13:47:14.885Z,24.10
2018-04-23T13:49:44.495Z,25.10
2018-04-23T13:52:13.679Z,25.10
2018-04-23T13:54:43.178Z,25.90
2018-04-23T13:57:14.131Z,25.40
2018-04-23T13:59:42.998Z,26.70
2018-04-23T14:02:11.829Z,28.30
2018-04-23T14:04:41.180Z,29.30
2018-04-23T14:07:10.811Z,30.50
2018-04-23T14:09:39.573Z,31.50
2018-04-23T14:12:08.255Z,32.70
2018-04-23T14:14:37.152Z,33.40
2018-04-23T14:17:06.187Z,34.10
2018-04-23T14:19:36.938Z,34.80
2018-04-23T14:22:10.682Z,33.80
2018-04-23T14:24:40.990Z,33.70
2018-04-23T14:29:46.485Z,34.00
2018-04-23T14:32:15.179Z,34.30
2018-04-23T14:34:45.642Z,34.40
2018-04-23T14:37:15.181Z,33.70
2018-04-23T14:39:44.949Z,34.00
2018-04-23T14:42:15.589Z,32.50
2018-04-23T14:44:44.976Z,32.50
2018-04-23T14:47:14.145Z,33.70
2018-04-23T14:49:44.086Z,32.00
2018-04-23T14:52:14.250Z,31.70
2018-04-23T14:54:44.310Z,31.70
2018-04-23T14:57:13.336Z,31.10
2018-04-23T14:59:43.023Z,30.80
2018-04-23T15:02:12.314Z,30.80
2018-04-23T15:04:41.987Z,32.00
2018-04-23T15:07:12.312Z,32.40
2018-04-23T15:12:21.706Z,32.50
2018-04-23T15:14:50.944Z,32.50
2018-04-23T15:19:59.498Z,34.80
2018-04-23T15:22:29.083Z,33.50
2018-04-23T15:24:59.385Z,34.00
2018-04-23T15:27:29.113Z,34.00
2018-04-23T15:29:58.119Z,33.20
2018-04-23T15:32:27.037Z,33.00
2018-04-23T15:37:40.944Z,34.50
2018-04-23T15:40:11.695Z,35.30
2018-04-23T15:42:45.412Z,34.90
2018-04-23T15:45:15.291Z,34.30
2018-04-23T15:47:45.742Z,35.30
2018-04-23T15:50:15.667Z,35.40
2018-04-23T15:52:46.331Z,35.90
2018-04-23T15:55:16.409Z,37.00
2018-04-23T15:57:46.382Z,36.90
2018-04-23T16:00:15.563Z,36.90
2018-04-23T16:02:44.458Z,35.50
2018-04-23T16:05:13.697Z,35.60
2018-04-23T16:07:42.487Z,35.40
2018-04-23T16:10:12.326Z,36.20
2018-04-23T16:12:41.913Z,36.40
2018-04-23T16:15:10.832Z,36.70
2018-04-23T16:17:46.421Z,37.10
2018-04-23T16:20:17.818Z,37.10
2018-04-23T16:22:48.264Z,37.30
2018-04-23T16:25:16.927Z,37.10
2018-04-23T16:30:19.557Z,38.40
2018-04-23T16:32:48.314Z,39.50
2018-04-23T16:35:17.431Z,39.20
2018-04-23T16:37:47.606Z,39.30
2018-04-23T16:40:17.855Z,39.80
2018-04-23T16:42:48.034Z,39.90
2018-04-23T16:45:17.518Z,39.90
2018-04-23T16:47:48.846Z,40.20
2018-04-23T16:50:17.672Z,40.10
2018-04-23T16:52:46.516Z,39.80
2018-04-23T16:55:15.515Z,39.40
2018-04-23T16:57:45.053Z,39.70
2018-04-23T17:00:14.758Z,40.20
2018-04-23T17:02:43.583Z,40.10
2018-04-23T17:05:13.013Z,40.50
2018-04-23T17:07:42.582Z,41.00
2018-04-23T17:10:12.437Z,41.00
2018-04-23T17:12:41.961Z,41.60
2018-04-23T17:15:11.116Z,41.70
2018-04-23T17:17:40.617Z,42.80
2018-04-23T17:20:09.427Z,42.70
2018-04-23T17:22:38.230Z,43.20
2018-04-23T17:25:07.054Z,43.60
2018-04-23T17:27:35.799Z,44.00
2018-04-23T17:30:04.677Z,44.20
2018-04-23T17:32:33.386Z,43.60
2018-04-23T17:35:02.263Z,43.90
2018-04-23T17:37:30.995Z,44.10
2018-04-23T17:40:00.158Z,43.70
2018-04-23T17:42:29.671Z,43.50
2018-04-23T17:45:00.956Z,44.20
2018-04-23T17:47:29.979Z,44.20
2018-04-23T17:49:58.697Z,42.40
2018-04-23T17:52:29.348Z,42.60
2018-04-23T17:54:58.091Z,42.10
2018-04-23T17:57:26.764Z,42.10
2018-04-23T17:59:55.449Z,40.40
2018-04-23T18:02:25.240Z,40.40
2018-04-23T18:04:54.895Z,40.70
2018-04-23T18:07:24.329Z,39.80
2018-04-23T18:12:27.357Z,39.40
2018-04-23T18:14:56.966Z,39.50
2018-04-23T18:17:26.266Z,39.40
2018-04-23T18:19:55.045Z,39.40
2018-04-23T18:22:24.009Z,39.20
2018-04-23T18:24:53.557Z,39.10
2018-04-23T18:27:23.377Z,39.30
2018-04-23T18:29:54.543Z,39.30
2018-04-23T18:32:24.005Z,39.30
2018-04-23T18:34:54.488Z,39.90
2018-04-23T18:37:23.947Z,41.10
2018-04-23T18:39:53.030Z,40.90
2018-04-23T18:42:22.706Z,41.70
2018-04-23T18:44:52.013Z,41.90
2018-04-23T18:47:21.539Z,43.30
2018-04-23T18:49:51.217Z,43.90
2018-04-23T18:52:20.645Z,43.90
2018-04-23T18:54:50.025Z,45.00
2018-04-23T18:57:20.038Z,45.20
2018-04-23T18:59:50.207Z,45.10
2018-04-23T19:02:21.105Z,45.00
2018-04-23T19:04:52.423Z,45.60
2018-04-23T19:07:22.090Z,47.50
2018-04-23T19:09:51.531Z,47.40
2018-04-23T19:12:20.605Z,48.70
2018-04-23T19:14:51.156Z,48.90
2018-04-23T19:17:21.631Z,49.70
2018-04-23T19:19:51.630Z,50.20
2018-04-23T19:22:22.817Z,50.70
2018-04-23T19:24:53.151Z,50.70
2018-04-23T19:27:23.324Z,49.40
2018-04-23T19:29:52.231Z,49.50
2018-04-23T19:32:21.924Z,50.20
2018-04-23T19:37:25.251Z,52.00
2018-04-23T19:39:54.867Z,52.70
2018-04-23T19:42:25.664Z,52.70
2018-04-23T19:44:55.279Z,54.60
2018-04-23T19:47:25.156Z,54.50
2018-04-23T19:49:56.779Z,55.80
2018-04-23T19:52:26.421Z,55.40
2018-04-23T19:54:55.985Z,55.40
2018-04-23T19:57:25.489Z,55.00
2018-04-23T19:59:54.922Z,56.10
2018-04-23T20:02:24.494Z,55.40
2018-04-23T20:07:28.646Z,56.20
2018-04-23T20:09:59.158Z,55.80
2018-04-23T20:12:28.419Z,55.80
2018-04-23T20:14:57.284Z,54.90
2018-04-23T20:17:26.057Z,56.60
2018-04-23T20:19:56.925Z,56.80
2018-04-23T20:22:26.321Z,56.60
2018-04-23T20:24:56.530Z,55.90
2018-04-23T20:27:25.857Z,55.80
2018-04-23T20:29:55.355Z,55.70
2018-04-23T20:32:25.648Z,55.10
2018-04-23T20:34:57.300Z,55.30
2018-04-23T20:37:26.328Z,54.90
2018-04-23T20:39:55.283Z,55.30
2018-04-23T20:42:25.208Z,55.10
2018-04-23T20:45:01.129Z,55.10
2018-04-23T20:47:31.659Z,55.30
2018-04-23T20:50:00.660Z,55.50
2018-04-23T20:52:29.997Z,56.60
2018-04-23T20:54:59.328Z,56.10
2018-04-23T20:57:29.378Z,55.80
2018-04-23T20:59:58.402Z,56.30
2018-04-23T21:02:26.974Z,56.60
2018-04-23T21:04:56.002Z,58.30
2018-04-23T21:07:24.902Z,59.50
2018-04-23T21:09:54.394Z,57.90
2018-04-23T21:12:23.672Z,60.10
2018-04-23T21:14:52.597Z,60.90
2018-04-23T21:17:21.560Z,62.60
2018-04-23T21:19:50.874Z,63.90
2018-04-23T21:22:20.447Z,65.40
2018-04-23T21:24:50.199Z,65.30
2018-04-23T21:27:20.486Z,65.20
2018-04-23T21:29:51.574Z,63.50
2018-04-23T21:32:20.273Z,62.80
2018-04-23T21:34:49.231Z,63.40
2018-04-23T21:37:18.295Z,64.10
2018-04-23T21:39:47.436Z,61.90
2018-04-23T21:42:15.975Z,61.40
2018-04-23T21:44:44.855Z,61.40
2018-04-23T21:47:14.374Z,60.90
2018-04-23T21:49:43.253Z,60.80
2018-04-23T21:52:12.213Z,60.60
2018-04-23T21:54:42.824Z,61.90
2018-04-23T21:57:12.082Z,61.80
2018-04-23T21:59:42.012Z,62.50
2018-04-23T22:02:10.867Z,61.90
2018-04-23T22:04:39.837Z,62.30
2018-04-23T22:07:08.677Z,62.50
2018-04-23T22:09:37.458Z,63.00
2018-04-23T22:12:06.341Z,62.90
2018-04-23T22:14:35.092Z,63.60
2018-04-23T22:17:05.427Z,64.20
2018-04-23T22:19:33.997Z,64.70
2018-04-23T22:22:03.719Z,65.30
2018-04-23T22:27:06.536Z,66.00
2018-04-23T22:29:35.225Z,65.70
2018-04-23T22:32:04.718Z,66.60
2018-04-23T22:34:34.174Z,66.10
2018-04-23T22:37:02.780Z,66.10
2018-04-23T22:39:31.365Z,66.60
2018-04-23T22:41:59.961Z,68.20
2018-04-23T22:44:29.249Z,69.10
2018-04-23T22:46:58.575Z,68.80
2018-04-23T22:49:27.471Z,68.80
2018-04-23T22:51:56.752Z,70.10
2018-04-23T22:54:25.773Z,70.40
2018-04-23T22:56:55.274Z,70.50
2018-04-23T22:59:24.034Z,69.60
2018-04-23T23:01:52.850Z,70.00
2018-04-23T23:04:22.344Z,71.30
2018-04-23T23:06:51.334Z,71.20
2018-04-23T23:09:20.073Z,70.00
2018-04-23T23:11:48.861Z,70.70
2018-04-23T23:14:17.774Z,72.10
2018-04-23T23:16:46.464Z,74.50
2018-04-23T23:19:15.265Z,73.10
2018-04-23T23:21:44.534Z,74.80
2018-04-23T23:24:14.123Z,76.20
2018-04-23T23:26:42.888Z,77.00
2018-04-23T23:29:12.211Z,77.60
2018-04-23T23:31:40.818Z,77.50
2018-04-23T23:34:10.188Z,78.20
2018-04-23T23:39:12.485Z,78.60
2018-04-23T23:41:41.941Z,77.70
2018-04-23T23:44:10.697Z,77.70
2018-04-23T23:46:40.482Z,78.10
2018-04-23T23:49:10.094Z,78.10
2018-04-23T23:51:39.151Z,78.30
2018-04-23T23:54:07.711Z,78.50
2018-04-23T23:56:36.433Z,76.00
